Time;durP1;ratioP1;P1;durP2;ratioP2;P2;SDS_P1;SDS_P2;PMS_P1;PMS_P2;Temp;Humidity;BMP_temperature;BMP_pressure;BME280_temperature;BME280_humidity;BME280_pressure;Samples;Min_cycle;Max_cycle;Signal;HPM_P1;HPM_P2
2023/10/11 00:00:56;;;;;;;13.23;4.70;;;;;;;17.83;63.79;98750.87;4470846;32;20427;-76
2023/10/11 00:05:59;;;;;;;20.40;5.37;;;;;;;17.29;64.75;98734.97;4458108;32;20145;-76
2023/10/11 00:08:26;;;;;;;20.17;4.82;;;;;;;16.97;66.96;98733.41;4470705;32;20352;-76
2023/10/11 00:10:59;;;;;;;17.70;5.05;;;;;;;17.30;65.36;98736.63;4470878;32;20096;-76
2023/10/11 00:13:33;;;;;;;10.68;4.55;;;;;;;17.29;65.25;98734.13;4471109;32;20133;-76
2023/10/11 00:16:08;;;;;;;10.75;4.43;;;;;;;17.70;63.54;98736.91;4470934;32;20107;-76
2023/10/11 00:18:41;;;;;;;10.55;4.30;;;;;;;17.53;63.81;98742.25;4471084;32;20076;-76
2023/10/11 00:21:15;;;;;;;10.80;4.50;;;;;;;17.92;61.92;98739.03;4470749;32;20166;-76
2023/10/11 00:23:50;;;;;;;11.40;4.57;;;;;;;17.46;63.28;98723.53;4470615;32;20145;-76
2023/10/11 00:26:18;;;;;;;9.00;3.83;;;;;;;17.41;64.46;98722.97;4470881;32;20088;-76
2023/10/11 00:28:45;;;;;;;8.80;3.78;;;;;;;17.27;65.85;98717.75;4470504;32;20089;-76
2023/10/11 00:31:19;;;;;;;10.60;4.28;;;;;;;17.35;66.48;98718.97;4470678;32;20086;-75
2023/10/11 00:33:47;;;;;;;10.13;4.05;;;;;;;17.04;67.79;98719.94;4470805;32;20097;-75
2023/10/11 00:36:26;;;;;;;10.35;4.00;;;;;;;17.40;66.85;98716.06;4470018;32;20093;-76
2023/10/11 00:38:56;;;;;;;10.05;4.05;;;;;;;17.04;68.15;98719.09;4470633;32;20169;-76
2023/10/11 00:41:30;;;;;;;9.60;3.90;;;;;;;17.22;67.68;98711.94;4470630;32;20093;-76
2023/10/11 00:43:58;;;;;;;11.07;4.03;;;;;;;17.48;66.23;98707.78;4470284;32;20179;-76
2023/10/11 00:46:28;;;;;;;10.68;4.22;;;;;;;17.39;66.53;98706.56;4470432;32;20124;-76
2023/10/11 00:49:05;;;;;;;11.15;4.50;;;;;;;17.84;65.31;98705.56;4456297;32;20084;-75
2023/10/11 00:51:32;;;;;;;7.97;3.85;;;;;;;17.13;67.91;98708.13;4470519;32;20466;-76
2023/10/11 00:54:01;;;;;;;12.88;4.47;;;;;;;17.28;67.97;98704.59;4470495;32;20101;-75
2023/10/11 00:56:32;;;;;;;10.55;4.30;;;;;;;17.55;67.18;98704.72;4470093;32;20635;-76
2023/10/11 00:59:08;;;;;;;10.15;3.92;;;;;;;17.59;67.05;98702.75;4470422;32;20395;-76
2023/10/11 01:01:37;;;;;;;12.07;4.37;;;;;;;17.94;65.80;98703.22;4470319;32;20111;-76
2023/10/11 01:04:06;;;;;;;10.25;4.43;;;;;;;17.85;65.89;98693.34;4471756;32;20140;-76
2023/10/11 01:06:34;;;;;;;10.82;4.20;;;;;;;17.98;65.73;98699.50;4472671;32;20115;-76
2023/10/11 01:09:18;;;;;;;13.25;4.47;;;;;;;18.08;65.57;98700.59;4472609;32;20081;-76
2023/10/11 01:11:47;;;;;;;11.43;4.72;;;;;;;18.05;65.48;98711.22;4458528;32;20105;-76
2023/10/11 01:14:15;;;;;;;12.85;5.28;;;;;;;17.64;66.93;98708.53;4472529;32;20132;-76
2023/10/11 01:16:42;;;;;;;14.80;5.15;;;;;;;17.34;68.21;98708.62;4472603;32;20450;-76
2023/10/11 01:19:16;;;;;;;13.23;5.00;;;;;;;17.90;66.81;98707.81;4458630;32;20077;-76
2023/10/11 01:21:54;;;;;;;13.68;4.75;;;;;;;18.29;65.41;98701.03;4472668;32;20093;-76
2023/10/11 01:24:23;;;;;;;12.20;4.93;;;;;;;17.94;66.06;98698.00;4471965;32;20177;-76
2023/10/11 01:26:50;;;;;;;12.15;4.45;;;;;;;17.98;65.84;98701.28;4472416;32;20103;-76
2023/10/11 01:29:17;;;;;;;9.85;4.00;;;;;;;17.80;66.11;98698.03;4472485;32;20418;-76
2023/10/11 01:31:44;;;;;;;13.18;4.87;;;;;;;17.90;66.41;98704.34;4472034;32;20112;-76
2023/10/11 01:34:14;;;;;;;13.45;4.97;;;;;;;18.00;66.48;98705.47;4472360;32;20111;-76
2023/10/11 01:36:44;;;;;;;11.35;4.78;;;;;;;18.09;66.02;98715.34;4472581;32;20081;-76
2023/10/11 01:39:12;;;;;;;14.13;4.87;;;;;;;18.23;64.85;98713.63;4472077;32;20420;-76
2023/10/11 01:41:42;;;;;;;12.50;4.95;;;;;;;18.35;64.53;98712.84;4472382;32;20395;-76
2023/10/11 01:44:11;;;;;;;16.35;5.03;;;;;;;18.13;65.47;98711.59;4472408;32;20150;-76
2023/10/11 01:46:39;;;;;;;13.32;5.10;;;;;;;17.78;67.87;98710.34;4471965;32;20152;-76
2023/10/11 01:49:09;;;;;;;11.48;4.78;;;;;;;17.76;69.34;98710.44;4472873;32;20451;-76
2023/10/11 01:51:43;;;;;;;12.35;4.00;;;;;;;17.97;67.41;98712.63;4472169;32;20089;-76
2023/10/11 01:54:10;;;;;;;14.82;4.57;;;;;;;18.07;67.41;98706.75;4471813;32;20092;-76
2023/10/11 01:56:38;;;;;;;17.52;5.70;;;;;;;18.47;65.32;98709.44;4472416;32;20089;-76
2023/10/11 01:59:06;;;;;;;16.75;4.65;;;;;;;18.25;65.53;98709.12;4471883;32;20077;-76
2023/10/11 02:01:39;;;;;;;13.13;5.30;;;;;;;18.34;65.82;98708.56;4472199;32;20141;-76
2023/10/11 02:04:17;;;;;;;12.85;5.03;;;;;;;18.70;64.36;98714.03;4472296;32;20378;-76
2023/10/11 02:06:47;;;;;;;14.30;4.97;;;;;;;19.12;60.55;98708.69;4472070;32;20741;-76
2023/10/11 02:09:20;;;;;;;14.25;5.18;;;;;;;18.56;61.76;98714.06;4472281;32;20098;-76
2023/10/11 02:11:52;;;;;;;12.48;5.12;;;;;;;18.43;62.66;98707.97;4472093;32;20569;-76
2023/10/11 02:14:22;;;;;;;12.18;4.65;;;;;;;18.30;63.04;98707.09;4471045;32;20116;-76
2023/10/11 02:16:49;;;;;;;14.00;6.15;;;;;;;18.59;62.56;98707.81;4472188;32;20081;-76
2023/10/11 02:19:17;;;;;;;15.70;5.68;;;;;;;18.25;65.22;98711.75;4472136;32;20107;-76
2023/10/11 02:21:44;;;;;;;14.80;5.35;;;;;;;18.59;66.42;98706.03;4471709;32;20101;-76
2023/10/11 02:24:14;;;;;;;13.27;5.45;;;;;;;18.43;66.96;98705.34;4471687;32;20139;-76
2023/10/11 02:26:49;;;;;;;11.63;4.95;;;;;;;18.72;63.91;98698.28;4472205;32;20084;-76
2023/10/11 02:29:21;;;;;;;15.77;6.18;;;;;;;18.15;65.38;98704.50;4471759;32;20143;-76
2023/10/11 02:31:52;;;;;;;12.90;5.50;;;;;;;18.46;62.12;98698.16;4458501;32;20736;-76
2023/10/11 02:34:20;;;;;;;13.05;4.95;;;;;;;18.62;62.18;98697.19;4471573;32;20120;-76
2023/10/11 02:37:10;;;;;;;14.57;5.22;;;;;;;17.95;64.17;98701.44;4472106;32;20104;-76
2023/10/11 02:39:43;;;;;;;14.90;5.82;;;;;;;18.41;64.90;98697.63;4460752;32;20084;-76
2023/10/11 02:42:11;;;;;;;14.52;5.40;;;;;;;18.71;64.47;98694.81;4471563;32;20109;-76
2023/10/11 02:44:41;;;;;;;15.90;5.53;;;;;;;18.71;63.05;98689.56;4471834;32;20435;-76
2023/10/11 02:47:09;;;;;;;14.52;5.25;;;;;;;18.12;65.53;98694.25;4472052;32;20129;-76
2023/10/11 02:49:37;;;;;;;15.80;5.50;;;;;;;18.90;64.42;98690.97;4457660;32;20080;-76
2023/10/11 02:52:06;;;;;;;18.15;6.07;;;;;;;19.31;63.66;98686.41;4457747;32;20123;-76
2023/10/11 02:54:38;;;;;;;15.23;5.72;;;;;;;18.56;66.44;98687.94;4471941;32;20153;-76
2023/10/11 02:57:06;;;;;;;17.75;6.75;;;;;;;18.59;67.15;98687.72;4471561;32;20462;-76
2023/10/11 02:59:34;;;;;;;13.20;5.37;;;;;;;18.55;67.47;98691.50;4471828;32;20103;-76
2023/10/11 03:02:01;;;;;;;11.65;5.40;;;;;;;19.06;66.21;98683.81;4471456;32;20093;-76
2023/10/11 03:04:29;;;;;;;15.15;5.65;;;;;;;19.37;64.98;98688.63;4471763;32;20109;-76
2023/10/11 03:06:56;;;;;;;15.27;5.80;;;;;;;18.96;66.00;98693.19;4471760;32;20422;-76
2023/10/11 03:09:27;;;;;;;15.60;5.12;;;;;;;19.14;65.33;98689.37;4471643;32;20084;-76
2023/10/11 03:11:56;;;;;;;14.95;5.28;;;;;;;19.80;62.33;98688.31;4458442;32;20112;-76
2023/10/11 03:14:24;;;;;;;14.60;5.32;;;;;;;19.81;62.21;98684.75;4471632;32;20132;-76
2023/10/11 03:16:56;;;;;;;14.65;5.40;;;;;;;18.98;62.88;98684.31;4471508;32;20180;-76
2023/10/11 03:19:24;;;;;;;18.23;6.72;;;;;;;18.69;62.77;98686.22;4471880;32;20137;-76
2023/10/11 03:21:54;;;;;;;17.00;7.03;;;;;;;18.73;62.01;98686.88;4471696;32;20089;-76
2023/10/11 03:24:21;;;;;;;21.33;8.50;;;;;;;18.57;62.45;98678.31;4470986;32;20104;-76
2023/10/11 03:26:48;;;;;;;29.25;9.35;;;;;;;19.24;59.45;98679.09;4470292;32;20085;-76
2023/10/11 03:29:18;;;;;;;19.50;7.80;;;;;;;19.18;59.03;98676.91;4471598;32;20080;-76
2023/10/11 03:31:47;;;;;;;20.27;6.97;;;;;;;18.84;59.79;98680.94;4457293;32;20121;-76
2023/10/11 03:34:23;;;;;;;18.02;6.75;;;;;;;18.84;59.17;98686.19;4471474;32;20156;-76
2023/10/11 03:36:50;;;;;;;20.02;6.53;;;;;;;18.59;60.39;98692.13;4471689;32;20111;-76
2023/10/11 03:39:31;;;;;;;20.77;6.68;;;;;;;18.54;60.98;98689.81;4471071;32;20163;-76
2023/10/11 03:42:13;;;;;;;15.45;6.07;;;;;;;18.44;60.90;98688.75;4445912;32;20096;-76
2023/10/11 03:44:47;;;;;;;17.80;5.90;;;;;;;18.46;61.02;98694.69;4471087;32;20172;-76
2023/10/11 03:47:15;;;;;;;18.73;6.47;;;;;;;18.80;59.30;98695.97;4471512;32;20126;-76
2023/10/11 03:52:20;;;;;;;13.45;5.03;;;;;;;18.99;58.64;98696.44;4470958;32;20117;-76
2023/10/11 03:54:47;;;;;;;12.18;4.90;;;;;;;18.88;59.40;98705.94;4471206;32;20096;-76
2023/10/11 03:57:17;;;;;;;13.73;5.00;;;;;;;17.87;62.07;98702.78;4471231;32;20119;-76
2023/10/11 03:59:48;;;;;;;11.48;4.97;;;;;;;18.35;61.92;98713.69;4470901;32;20461;-76
2023/10/11 04:02:17;;;;;;;15.07;5.07;;;;;;;18.25;62.31;98707.34;4457660;32;20101;-76
2023/10/11 04:04:48;;;;;;;13.65;4.82;;;;;;;18.67;60.98;98693.34;4470998;32;20153;-76
2023/10/11 04:07:17;;;;;;;13.35;5.57;;;;;;;18.46;61.92;98692.09;4470983;32;20103;-76
2023/10/11 04:09:47;;;;;;;18.10;6.90;;;;;;;18.62;61.45;98690.16;4457102;32;20449;-76
2023/10/11 04:12:14;;;;;;;19.10;6.62;;;;;;;18.42;63.04;98706.31;4470692;32;20168;-76
2023/10/11 04:14:45;;;;;;;21.42;6.68;;;;;;;18.15;63.13;98709.72;4470964;32;20108;-76
2023/10/11 04:20:17;;;;;;;16.25;5.90;;;;;;;17.95;64.77;98701.44;4470768;32;20076;-76
2023/10/11 04:23:01;;;;;;;14.65;5.05;;;;;;;18.25;65.35;98699.53;4459206;32;20460;-76
2023/10/11 04:25:32;;;;;;;16.45;5.90;;;;;;;18.62;64.06;98697.19;4456645;32;20154;-76
2023/10/11 04:28:02;;;;;;;17.73;7.30;;;;;;;18.41;64.72;98694.16;4470617;32;20089;-76
2023/10/11 04:30:41;;;;;;;13.77;6.20;;;;;;;18.14;65.01;98700.19;4470830;32;20098;-76
2023/10/11 04:33:12;;;;;;;16.55;6.43;;;;;;;18.92;60.33;98695.16;4470862;32;20112;-76
2023/10/11 04:35:42;;;;;;;16.52;6.35;;;;;;;19.15;58.92;98701.50;4470703;32;20474;-76
2023/10/11 04:38:13;;;;;;;14.18;5.35;;;;;;;18.85;59.59;98699.16;4471900;32;20565;-76
2023/10/11 04:40:49;;;;;;;14.48;6.18;;;;;;;18.15;61.29;98680.16;4472546;32;20111;-76
2023/10/11 04:43:26;;;;;;;15.68;5.53;;;;;;;18.18;62.52;98701.72;4472842;32;20097;-76
2023/10/11 04:46:15;;;;;;;15.50;6.00;;;;;;;17.95;62.51;98701.44;4472536;32;20172;-76
2023/10/11 04:48:44;;;;;;;21.10;8.77;;;;;;;17.97;61.67;98663.91;4472344;32;20531;-76
2023/10/11 04:53:56;;;;;;;20.50;10.35;;;;;;;18.08;62.67;98712.84;4472934;32;20138;-76
2023/10/11 05:00:00;;;;;;;20.40;8.07;;;;;;;18.40;62.05;98710.78;4472805;32;20104;-76
2023/10/11 05:04:57;;;;;;;16.92;7.50;;;;;;;18.08;62.81;98726.72;4451464;32;20097;-76
2023/10/11 05:07:25;;;;;;;16.83;7.97;;;;;;;18.21;62.26;98721.56;4472638;32;20164;-76
2023/10/11 05:10:29;;;;;;;14.70;7.37;;;;;;;18.09;62.80;98731.00;4472222;32;20088;-76
2023/10/11 05:12:57;;;;;;;17.12;7.12;;;;;;;18.15;62.59;98725.38;4472235;32;20458;-76
2023/10/11 05:15:32;;;;;;;14.25;7.00;;;;;;;18.05;62.57;98736.50;4471827;32;20169;-75
2023/10/11 05:18:00;;;;;;;15.70;7.65;;;;;;;18.25;62.16;98737.88;4472601;32;20101;-75
2023/10/11 05:23:33;;;;;;;16.35;6.87;;;;;;;18.41;61.31;98734.19;4453580;32;20460;-75
2023/10/11 05:26:00;;;;;;;14.68;6.40;;;;;;;19.06;59.46;98734.34;4472302;32;20181;-75
2023/10/11 05:28:27;;;;;;;15.10;5.47;;;;;;;19.02;59.97;98739.84;4472396;32;20114;-75
2023/10/11 05:31:19;;;;;;;15.77;5.70;;;;;;;19.40;59.33;98742.53;4472163;32;20076;-75
2023/10/11 05:53:13;;;;;;;12.68;4.10;;;;;;;20.98;59.40;98756.66;4472293;32;20081;-77
2023/10/11 05:55:41;;;;;;;12.37;4.87;;;;;;;21.43;57.77;98753.34;4472135;32;20076;-77
2023/10/11 05:58:08;;;;;;;10.95;4.60;;;;;;;22.14;55.78;98766.22;4471884;32;20113;-78
2023/10/11 06:00:38;;;;;;;11.88;4.85;;;;;;;22.52;53.86;98759.69;4472146;32;20191;-77
2023/10/11 06:03:11;;;;;;;12.55;4.45;;;;;;;22.69;52.16;98766.22;4472271;32;20104;-77
2023/10/11 06:05:41;;;;;;;13.43;4.50;;;;;;;22.40;53.17;98768.56;4471360;32;20152;-77
2023/10/11 06:08:15;;;;;;;12.82;4.68;;;;;;;22.59;52.44;98763.50;4472100;32;20154;-77
2023/10/11 06:10:43;;;;;;;13.95;5.30;;;;;;;22.03;53.94;98767.97;4472152;32;20085;-77
2023/10/11 06:13:14;;;;;;;10.43;4.30;;;;;;;21.84;54.89;98765.94;4472557;32;20145;-78
2023/10/11 06:15:58;;;;;;;11.25;4.55;;;;;;;22.13;54.60;98759.28;4472093;32;20143;-77
2023/10/11 06:18:39;;;;;;;12.15;4.30;;;;;;;21.99;54.81;98756.84;4472366;32;20162;-77
2023/10/11 06:21:56;;;;;;;12.52;4.60;;;;;;;22.01;54.33;98762.84;4472209;32;20088;-77
2023/10/11 06:24:03;;;;;;;10.50;4.70;;;;;;;22.45;54.10;98759.34;4467272;32;20081;-77
2023/10/11 06:29:07;;;;;;;11.07;4.22;;;;;;;24.08;50.14;98765.13;4471787;32;20158;-78
2023/10/11 06:31:43;;;;;;;12.45;4.40;;;;;;;24.79;48.55;98760.59;4471901;32;20097;-77
2023/10/11 06:34:26;;;;;;;13.20;4.93;;;;;;;25.14;47.48;98759.22;4471377;32;20085;-78
2023/10/11 06:36:57;;;;;;;12.40;4.80;;;;;;;25.13;46.76;98741.72;4472093;32;20072;-77
2023/10/11 06:44:51;;;;;;;12.20;4.57;;;;;;;26.21;45.59;98772.03;4474782;32;20081;-79
2023/10/11 06:47:20;;;;;;;12.27;4.53;;;;;;;27.06;43.58;98773.47;4473042;32;20089;-78
2023/10/11 06:49:55;;;;;;;10.57;4.50;;;;;;;27.29;43.14;98762.38;4472777;32;20130;-78
2023/10/11 06:52:25;;;;;;;11.43;4.32;;;;;;;27.07;43.68;98758.41;4471959;32;20501;-77
2023/10/11 06:57:40;;;;;;;11.80;4.13;;;;;;;26.52;44.63;98775.22;4472464;32;20708;-78
2023/10/11 07:00:24;;;;;;;11.73;4.10;;;;;;;25.76;46.63;98771.94;4457658;32;20125;-78
2023/10/11 07:03:05;;;;;;;11.40;4.75;;;;;;;26.08;46.04;98773.34;4446242;32;20092;-78
2023/10/11 07:05:40;;;;;;;11.50;4.53;;;;;;;25.84;46.72;98766.78;4458718;32;20109;-76
2023/10/11 07:08:09;;;;;;;11.38;4.18;;;;;;;25.21;48.05;98769.09;4457438;32;20152;-77
2023/10/11 07:10:45;;;;;;;13.65;4.65;;;;;;;25.33;48.09;98765.31;4471588;32;20399;-77
2023/10/11 07:13:13;;;;;;;11.40;4.03;;;;;;;25.50;48.06;98765.56;4445588;32;20494;-77
2023/10/11 07:15:43;;;;;;;11.05;4.28;;;;;;;26.04;47.23;98767.50;4457084;32;20119;-78
2023/10/11 07:18:25;;;;;;;11.88;4.20;;;;;;;25.67;47.42;98763.03;4459098;32;20119;-79
2023/10/11 07:21:05;;;;;;;11.00;4.65;;;;;;;25.95;47.10;98769.22;4473030;32;20096;-79
2023/10/11 07:23:56;;;;;;;12.32;4.35;;;;;;;25.83;47.28;98764.25;4457211;32;20096;-80
2023/10/11 07:28:59;;;;;;;11.55;4.15;;;;;;;26.24;46.46;98770.88;4471346;32;20096;-77
2023/10/11 07:31:32;;;;;;;13.62;4.87;;;;;;;26.45;46.05;98778.59;4471578;32;20428;-77
2023/10/11 07:34:05;;;;;;;9.82;3.58;;;;;;;26.07;46.77;98775.16;4457158;32;20451;-76
2023/10/11 07:36:36;;;;;;;10.70;3.75;;;;;;;26.56;46.29;98775.75;4457486;32;20111;-77
2023/10/11 07:39:25;;;;;;;14.70;4.28;;;;;;;26.27;46.59;98781.19;4472082;32;20415;-77
2023/10/11 07:42:07;;;;;;;12.32;4.50;;;;;;;26.50;46.40;98776.38;4459670;32;20105;-78
2023/10/11 07:47:07;;;;;;;10.68;4.20;;;;;;;26.74;45.50;98784.56;4454808;32;20175;-77
2023/10/11 07:49:38;;;;;;;11.52;3.78;;;;;;;26.48;45.79;98780.97;4429736;32;20533;-77
2023/10/11 07:52:09;;;;;;;11.30;3.47;;;;;;;25.56;49.18;98786.97;4456019;32;20093;-77
2023/10/11 07:54:39;;;;;;;10.00;3.70;;;;;;;26.44;46.68;98782.25;4442262;32;20162;-77
2023/10/11 07:57:14;;;;;;;9.18;3.17;;;;;;;26.01;46.69;98786.31;4441986;32;20145;-77
2023/10/11 07:59:42;;;;;;;11.32;3.65;;;;;;;25.36;46.71;98775.59;4455654;32;20103;-77
2023/10/11 08:02:26;;;;;;;10.77;3.60;;;;;;;24.76;48.21;98776.69;4455712;32;20111;-77
2023/10/11 08:04:54;;;;;;;11.57;3.35;;;;;;;24.72;48.01;98775.31;4454694;32;20117;-77
2023/10/11 08:07:22;;;;;;;8.75;3.45;;;;;;;24.07;49.48;98779.28;4455612;32;20088;-77
2023/10/11 08:09:53;;;;;;;10.88;3.60;;;;;;;24.68;48.87;98779.19;4455405;32;20149;-77
2023/10/11 08:12:25;;;;;;;9.30;3.20;;;;;;;24.73;48.35;98771.69;4455390;32;20089;-77
2023/10/11 08:14:56;;;;;;;12.63;3.47;;;;;;;25.12;47.69;98774.37;4457191;32;20168;-76
2023/10/11 08:17:29;;;;;;;8.98;3.53;;;;;;;25.11;46.58;98764.78;4457347;32;20141;-77
2023/10/11 08:19:57;;;;;;;11.73;3.20;;;;;;;24.24;48.47;98762.78;4443756;32;20085;-77
2023/10/11 08:22:27;;;;;;;7.55;2.97;;;;;;;24.20;49.13;98759.59;4457376;32;20093;-77
2023/10/11 08:27:29;;;;;;;9.43;3.30;;;;;;;24.75;47.76;98762.66;4455465;32;20142;-77
2023/10/11 08:30:17;;;;;;;7.40;3.15;;;;;;;24.42;48.25;98766.50;4457298;32;20107;-77
2023/10/11 08:32:48;;;;;;;11.55;3.42;;;;;;;24.21;48.86;98779.72;4456987;32;20456;-77
2023/10/11 08:35:31;;;;;;;12.30;3.35;;;;;;;24.55;47.83;98778.59;4543370;26;20120;-78
2023/10/11 08:38:04;;;;;;;8.95;3.20;;;;;;;24.52;48.02;98775.25;4443072;32;20092;-78
2023/10/11 08:40:36;;;;;;;10.15;3.35;;;;;;;24.28;49.02;98774.75;4443054;32;20491;-77
2023/10/11 08:43:06;;;;;;;9.05;3.00;;;;;;;24.03;48.81;98769.94;4457168;32;20128;-77
2023/10/11 08:50:57;;;;;;;13.00;4.28;;;;;;;24.66;47.58;98774.03;4645642;26;20093;-78
2023/10/11 08:53:24;;;;;;;9.32;3.28;;;;;;;24.58;48.07;98773.91;4457606;32;20105;-78
2023/10/11 08:55:59;;;;;;;9.25;3.10;;;;;;;24.66;47.85;98766.13;4457060;32;20127;-77
2023/10/11 08:58:29;;;;;;;13.35;3.33;;;;;;;24.41;47.80;98764.81;4457530;32;20085;-77
2023/10/11 09:00:58;;;;;;;10.15;3.25;;;;;;;24.83;47.77;98764.63;4457799;32;20058;-78
2023/10/11 09:03:28;;;;;;;9.63;2.97;;;;;;;25.18;46.79;98757.97;4447648;32;20097;-78
2023/10/11 09:13:53;;;;;;;16.98;3.47;;;;;;;25.78;43.80;98764.69;4456468;32;20510;-75
2023/10/11 09:16:36;;;;;;;10.27;3.05;;;;;;;25.92;43.24;98761.56;4455962;32;20117;-75
2023/10/11 09:19:09;;;;;;;8.35;3.00;;;;;;;26.19;42.75;98757.28;4456941;32;20099;-75
2023/10/11 09:21:37;;;;;;;8.70;2.97;;;;;;;26.09;43.04;98762.62;4456581;32;20103;-75
2023/10/11 09:24:25;;;;;;;9.40;3.12;;;;;;;26.07;42.28;98766.41;4456602;32;20127;-75
2023/10/11 09:29:30;;;;;;;12.97;2.80;;;;;;;25.44;42.88;98760.88;4730333;26;6116675;-76
2023/10/11 09:32:04;;;;;;;7.87;2.47;;;;;;;25.68;42.76;98764.69;4456658;32;20093;-75
2023/10/11 09:34:32;;;;;;;11.73;2.80;;;;;;;25.44;43.44;98764.34;4456691;32;20364;-76
2023/10/11 09:37:00;;;;;;;11.52;2.92;;;;;;;25.86;42.20;98770.09;4523954;26;20151;-75
2023/10/11 09:39:29;;;;;;;11.12;3.50;;;;;;;25.18;43.48;98768.53;4456450;32;20107;-75
2023/10/11 09:42:04;;;;;;;9.73;3.00;;;;;;;25.56;42.89;98762.38;4456504;32;20085;-75
2023/10/11 09:44:39;;;;;;;8.57;2.97;;;;;;;25.71;42.69;98755.66;4456466;32;20141;-75
2023/10/11 09:47:16;;;;;;;7.25;2.47;;;;;;;25.94;42.13;98764.91;4456437;32;20108;-75
2023/10/11 09:49:46;;;;;;;9.50;2.95;;;;;;;25.81;42.75;98753.81;4456439;32;20372;-76
2023/10/11 09:52:18;;;;;;;8.63;3.12;;;;;;;25.97;41.40;98755.03;4456610;32;20136;-75
2023/10/11 09:54:45;;;;;;;7.62;2.55;;;;;;;25.47;42.30;98748.19;4456516;32;20135;-76
2023/10/11 09:57:42;;;;;;;9.35;2.85;;;;;;;25.43;42.51;98746.81;4558511;26;20173;-76
2023/10/11 10:00:35;;;;;;;9.55;2.67;;;;;;;25.11;42.43;98751.59;4425778;32;20086;-76
2023/10/11 10:03:04;;;;;;;10.13;2.85;;;;;;;25.02;42.54;98740.06;4425326;32;20090;-76
2023/10/11 10:06:04;;;;;;;9.52;2.60;;;;;;;24.83;43.34;98753.22;4425326;32;20153;-75
2023/10/11 10:08:31;;;;;;;9.55;2.90;;;;;;;24.61;43.44;98749.03;4425790;32;20112;-75
2023/10/11 10:11:02;;;;;;;8.57;2.53;;;;;;;24.74;42.72;98744.31;4425313;32;20100;-75
2023/10/11 10:13:30;;;;;;;11.38;2.85;;;;;;;24.71;42.94;98750.72;4424624;32;20090;-75
2023/10/11 10:15:57;;;;;;;10.75;3.10;;;;;;;25.12;42.14;98734.78;4424187;32;20472;-75
2023/10/11 10:18:27;;;;;;;9.70;2.53;;;;;;;25.47;42.79;98740.25;4425380;32;20152;-75
2023/10/11 10:21:02;;;;;;;9.10;3.03;;;;;;;25.17;41.98;98736.00;4425574;32;20758;-74
2023/10/11 10:23:32;;;;;;;6.93;2.70;;;;;;;24.80;43.35;98735.87;4425501;32;20105;-75
2023/10/11 10:26:11;;;;;;;7.57;2.50;;;;;;;25.13;42.67;98731.16;4424659;32;20113;-76
2023/10/11 10:28:42;;;;;;;9.45;3.10;;;;;;;24.88;43.70;98725.44;4424660;32;20109;-75
2023/10/11 10:31:16;;;;;;;6.43;2.35;;;;;;;24.76;44.42;98732.66;4425380;32;20449;-75
2023/10/11 10:33:49;;;;;;;12.02;3.30;;;;;;;25.28;42.71;98733.22;4424389;32;20105;-74
2023/10/11 10:36:28;;;;;;;12.98;3.15;;;;;;;25.43;42.58;98723.03;4424660;32;20120;-75
2023/10/11 10:39:24;;;;;;;9.80;2.97;;;;;;;25.24;42.27;98726.56;4425404;32;20116;-76
2023/10/11 10:42:12;;;;;;;10.85;3.30;;;;;;;25.44;42.74;98724.72;4425399;32;20144;-76
2023/10/11 10:44:53;;;;;;;11.07;3.30;;;;;;;25.09;43.05;98705.03;4424254;32;20153;-76
2023/10/11 10:47:23;;;;;;;10.48;3.40;;;;;;;25.34;43.18;98718.63;4427534;32;20093;-79
2023/10/11 10:49:53;;;;;;;8.25;2.75;;;;;;;25.10;43.61;98711.16;4430090;32;20099;-79
2023/10/11 10:52:22;;;;;;;10.77;3.03;;;;;;;25.26;43.88;98713.19;4427371;32;20058;-78
2023/10/11 10:55:03;;;;;;;10.43;3.12;;;;;;;25.37;43.53;98710.41;4426914;32;20086;-79
2023/10/11 10:57:38;;;;;;;9.57;3.50;;;;;;;25.67;42.97;98718.09;5084915;26;20044;-79
2023/10/11 11:00:27;;;;;;;12.18;3.30;;;;;;;25.58;43.40;98712.84;4458817;32;20096;-78
2023/10/11 11:02:56;;;;;;;11.52;3.20;;;;;;;25.65;43.67;98706.84;4456217;32;20081;-77
2023/10/11 11:05:29;;;;;;;10.32;3.12;;;;;;;25.49;43.61;98697.84;4442182;32;20115;-76
2023/10/11 11:08:19;;;;;;;10.30;3.35;;;;;;;25.64;42.88;98699.06;4474605;26;20127;-76
2023/10/11 11:10:54;;;;;;;12.45;3.25;;;;;;;25.61;43.95;98684.31;4456142;32;20104;-76
2023/10/11 11:13:23;;;;;;;14.20;3.42;;;;;;;26.16;42.83;98692.31;4455502;32;20097;-76
2023/10/11 11:15:55;;;;;;;10.85;3.67;;;;;;;26.34;42.11;98694.94;4455380;32;20076;-75
2023/10/11 11:18:32;;;;;;;9.57;3.28;;;;;;;26.01;43.01;98687.66;4456124;32;20090;-76
2023/10/11 11:21:20;;;;;;;12.90;3.15;;;;;;;26.40;42.58;98690.94;4455795;32;20093;-77
2023/10/11 11:23:51;;;;;;;9.65;3.33;;;;;;;26.67;42.32;98692.66;4442815;32;20148;-77
2023/10/11 11:52:28;;;;;;;11.10;3.42;;;;;;;26.92;41.13;98664.59;5089666;27;20094;-76
2023/10/11 11:54:56;;;;;;;13.70;4.22;;;;;;;27.62;40.27;98666.19;4409413;32;20147;-76
2023/10/11 12:11:29;;;;;;;10.63;3.50;;;;;;;27.28;40.91;98645.00;4363426;32;20087;-79
2023/10/11 12:13:58;;;;;;;11.75;3.22;;;;;;;27.20;40.61;98646.75;4364444;32;20095;-80
2023/10/11 12:16:26;;;;;;;10.82;3.20;;;;;;;27.73;39.86;98649.22;4364111;32;20100;-80
2023/10/11 12:18:59;;;;;;;9.98;3.12;;;;;;;27.64;39.24;98658.91;4363297;32;20087;-79
2023/10/11 12:21:27;;;;;;;11.82;3.20;;;;;;;27.70;39.71;98652.19;4364287;32;20082;-80
2023/10/11 12:23:54;;;;;;;10.35;3.28;;;;;;;27.43;40.00;98650.53;4362665;32;20118;-78
2023/10/11 12:26:22;;;;;;;11.35;3.12;;;;;;;26.72;41.23;98654.16;4363874;32;20547;-79
2023/10/11 12:28:49;;;;;;;10.23;3.92;;;;;;;26.30;41.81;98650.44;4364040;32;20119;-79
2023/10/11 12:31:17;;;;;;;11.45;3.22;;;;;;;26.35;41.49;98645.53;4363667;32;20343;-80
2023/10/11 12:33:44;;;;;;;10.10;2.90;;;;;;;26.49;41.47;98642.41;4364240;32;20131;-81
2023/10/11 12:36:11;;;;;;;12.55;3.35;;;;;;;26.37;41.39;98640.94;4365530;32;20117;-80
2023/10/11 12:38:39;;;;;;;11.60;3.80;;;;;;;26.45;41.92;98631.25;4364027;32;20099;-81
2023/10/11 12:41:07;;;;;;;9.15;3.03;;;;;;;26.56;41.92;98640.78;4364015;32;20079;-79
2023/10/11 12:43:34;;;;;;;11.50;3.20;;;;;;;26.72;41.43;98638.28;4364464;32;20155;-79
2023/10/11 12:46:02;;;;;;;12.85;3.53;;;;;;;26.44;42.08;98629.59;4363637;32;20091;-80
2023/10/11 12:48:29;;;;;;;14.23;3.55;;;;;;;26.58;41.43;98627.41;4365064;32;20170;-79
2023/10/11 12:50:58;;;;;;;9.75;3.30;;;;;;;26.93;41.48;98623.88;4365405;32;20075;-79
2023/10/11 12:53:29;;;;;;;8.30;2.92;;;;;;;27.17;40.62;98624.06;4364786;32;20087;-79
2023/10/11 12:55:56;;;;;;;9.63;3.50;;;;;;;27.02;40.07;98613.22;4365598;32;20099;-80
2023/10/11 13:09:40;;;;;;;10.32;3.03;;;;;;;27.73;39.62;98598.00;4414712;27;20098;-79
2023/10/11 13:12:08;;;;;;;13.80;3.75;;;;;;;28.00;38.47;98603.06;4382520;32;20124;-79
2023/10/11 13:14:38;;;;;;;9.65;3.30;;;;;;;27.56;39.72;98603.22;4383213;32;20120;-79
2023/10/11 13:17:08;;;;;;;10.32;3.28;;;;;;;27.36;40.31;98593.88;4389787;32;20098;-79
2023/10/11 13:19:36;;;;;;;10.95;3.15;;;;;;;27.56;39.91;98595.28;4380298;32;20445;-79
2023/10/11 13:22:09;;;;;;;11.05;3.12;;;;;;;27.27;40.29;98595.66;4380652;32;20079;-79
2023/10/11 13:24:36;;;;;;;11.63;3.28;;;;;;;27.14;40.45;98589.13;4380547;32;20122;-81
2023/10/11 13:27:04;;;;;;;12.50;3.50;;;;;;;27.09;40.17;98593.06;4380533;32;20091;-79
2023/10/11 13:29:31;;;;;;;11.98;3.45;;;;;;;27.20;40.70;98591.13;4382207;32;20509;-80
2023/10/11 13:31:58;;;;;;;9.45;3.20;;;;;;;27.01;40.73;98589.50;4381449;32;20105;-80
2023/10/11 13:34:30;;;;;;;12.23;3.50;;;;;;;27.03;40.90;98577.81;4381326;32;20125;-80
2023/10/11 13:37:00;;;;;;;11.38;3.12;;;;;;;27.25;40.49;98583.56;4380464;32;20362;-79
2023/10/11 13:39:28;;;;;;;10.63;3.00;;;;;;;27.32;40.13;98581.91;4367956;32;20087;-80
2023/10/11 13:42:09;;;;;;;12.88;3.72;;;;;;;27.29;40.62;98580.41;4367123;32;20082;-80
2023/10/11 13:44:37;;;;;;;10.35;3.08;;;;;;;26.76;40.78;98585.84;4367138;32;20154;-80
2023/10/11 13:47:04;;;;;;;14.25;3.20;;;;;;;26.75;41.45;98578.91;4367101;32;20177;-78
2023/10/11 13:49:37;;;;;;;10.27;3.20;;;;;;;26.70;41.00;98579.38;4379934;32;20109;-78
2023/10/11 13:52:06;;;;;;;11.65;3.50;;;;;;;26.35;42.03;98577.56;4380405;32;20079;-79
2023/10/11 13:57:07;;;;;;;14.38;3.53;;;;;;;26.42;42.19;98576.03;4366461;32;20136;-79